Main page
METAR-TAF:

METAR-TAF

Airports :

Imperatriz Airport

Imperatriz, Maranhão, Brazil

latitude: 05-32S, longitude: 047-30W, elevation: 123 m

Current weather observation

The report was made 25 minutes ago, at 12:00 UTC
Wind 3 kt from the Northeast
Temperature 29°C
Humidity 79%
Pressure 1011 hPa
Visibility 10 km or more
Scattered clouds at a height of 2000 ft

METAR: SBIZ 011200Z 04003KT 9999 SCT020 29/25 Q1011

Time: 09:25 (12:25 UTC)

Forecast

The report was made 9 hours and 25 minutes ago, at 03:00 UTC
Forecast valid from 01 at 06 UTC to 01 at 18 UTC
Wind kt from the North
Visibility 10 km or more
no clouds below 1500 m and no cumulonimbus
Becoming
from 01 at 10 UTC to 01 at 12 UTC
Wind 3 kt from the North/Northeast
Scattered clouds at a height of 1200 ft
Becoming
from 01 at 14 UTC to 01 at 16 UTC
Wind 5 kt from the South/Southeast
Broken clouds at a height of 2500 ft

TAF: SBIZ 010300Z 0106/0118 00000KT CAVOK TN25/0108Z TX32/0117Z BECMG 0110/0112 03003KT SCT012 BECMG 0114/0116 16005KT BKN025 RMK PGY

Weather observations and forecasts of more than 4000 airports (METAR and TAF reports).

The available stations are represented by yellow and red dots on the map.

Hover mouse over dot to see the name of the station.

Then click to see weather observations and forecasts.

To change the map : click on the green buttons with a black cross to zoom in, on the green button with a dash to zoom out, or on the green arrows for adjacent maps.


METAR-TAF: